sensor_id;sensor_type;location;lat;lon;timestamp;pressure;altitude;pressure_sealevel;temperature;humidity
27643;BME280;15053;48.618;10.024;2023-10-19T00:01:24;92867.72;;;9.42;100.00
27643;BME280;15053;48.618;10.024;2023-10-19T00:03:52;92867.59;;;9.39;100.00
27643;BME280;15053;48.618;10.024;2023-10-19T00:06:22;92865.72;;;9.39;100.00
27643;BME280;15053;48.618;10.024;2023-10-19T00:08:49;92877.66;;;9.40;100.00
27643;BME280;15053;48.618;10.024;2023-10-19T00:11:19;92884.84;;;9.43;100.00
27643;BME280;15053;48.618;10.024;2023-10-19T00:13:50;92877.81;;;9.44;100.00
27643;BME280;15053;48.618;10.024;2023-10-19T00:16:17;92866.03;;;9.46;100.00
27643;BME280;15053;48.618;10.024;2023-10-19T00:18:44;92864.19;;;9.47;100.00
27643;BME280;15053;48.618;10.024;2023-10-19T00:21:11;92856.69;;;9.45;100.00
27643;BME280;15053;48.618;10.024;2023-10-19T00:23:47;92865.41;;;9.49;100.00
27643;BME280;15053;48.618;10.024;2023-10-19T00:26:15;92861.09;;;9.54;100.00
27643;BME280;15053;48.618;10.024;2023-10-19T00:28:53;92846.41;;;9.58;100.00
27643;BME280;15053;48.618;10.024;2023-10-19T00:31:22;92850.97;;;9.61;100.00
27643;BME280;15053;48.618;10.024;2023-10-19T00:33:50;92854.63;;;9.60;100.00
27643;BME280;15053;48.618;10.024;2023-10-19T00:36:21;92872.53;;;9.61;100.00
27643;BME280;15053;48.618;10.024;2023-10-19T00:38:49;92868.69;;;9.59;100.00
27643;BME280;15053;48.618;10.024;2023-10-19T00:41:18;92858.28;;;9.59;100.00
27643;BME280;15053;48.618;10.024;2023-10-19T00:43:49;92845.00;;;9.60;100.00
27643;BME280;15053;48.618;10.024;2023-10-19T00:46:18;92839.19;;;9.63;100.00
27643;BME280;15053;48.618;10.024;2023-10-19T00:48:56;92836.25;;;9.65;100.00
27643;BME280;15053;48.618;10.024;2023-10-19T00:51:45;92806.03;;;9.60;100.00
27643;BME280;15053;48.618;10.024;2023-10-19T00:54:34;92816.28;;;9.57;100.00
27643;BME280;15053;48.618;10.024;2023-10-19T00:57:06;92814.31;;;9.54;100.00
27643;BME280;15053;48.618;10.024;2023-10-19T00:59:40;92813.72;;;9.48;100.00
27643;BME280;15053;48.618;10.024;2023-10-19T01:02:19;92818.63;;;9.49;100.00
27643;BME280;15053;48.618;10.024;2023-10-19T01:04:49;92815.59;;;9.47;100.00
27643;BME280;15053;48.618;10.024;2023-10-19T01:07:23;92818.47;;;9.46;100.00
27643;BME280;15053;48.618;10.024;2023-10-19T01:09:58;92854.09;;;9.45;100.00
27643;BME280;15053;48.618;10.024;2023-10-19T01:12:26;92858.41;;;9.41;100.00
27643;BME280;15053;48.618;10.024;2023-10-19T01:17:36;92844.50;;;9.37;100.00
27643;BME280;15053;48.618;10.024;2023-10-19T01:20:11;92831.06;;;9.35;100.00
27643;BME280;15053;48.618;10.024;2023-10-19T01:28:08;92816.38;;;9.39;100.00
27643;BME280;15053;48.618;10.024;2023-10-19T01:30:38;92803.06;;;9.41;100.00
27643;BME280;15053;48.618;10.024;2023-10-19T01:33:05;92802.75;;;9.42;100.00
27643;BME280;15053;48.618;10.024;2023-10-19T01:35:39;92788.84;;;9.47;100.00
27643;BME280;15053;48.618;10.024;2023-10-19T01:38:27;92778.13;;;9.48;100.00
27643;BME280;15053;48.618;10.024;2023-10-19T01:40:58;92769.53;;;9.48;100.00
27643;BME280;15053;48.618;10.024;2023-10-19T01:43:28;92772.72;;;9.54;100.00
27643;BME280;15053;48.618;10.024;2023-10-19T01:45:58;92775.03;;;9.55;100.00
27643;BME280;15053;48.618;10.024;2023-10-19T01:48:31;92780.22;;;9.55;100.00
27643;BME280;15053;48.618;10.024;2023-10-19T01:51:05;92781.44;;;9.58;100.00
27643;BME280;15053;48.618;10.024;2023-10-19T01:53:32;92773.00;;;9.61;100.00
27643;BME280;15053;48.618;10.024;2023-10-19T01:55:59;92758.47;;;9.60;100.00
27643;BME280;15053;48.618;10.024;2023-10-19T01:58:26;92762.41;;;9.66;100.00
27643;BME280;15053;48.618;10.024;2023-10-19T02:00:53;92751.38;;;9.69;100.00
27643;BME280;15053;48.618;10.024;2023-10-19T02:03:35;92745.84;;;9.70;100.00
27643;BME280;15053;48.618;10.024;2023-10-19T02:06:03;92740.03;;;9.73;100.00
27643;BME280;15053;48.618;10.024;2023-10-19T02:08:59;92729.63;;;9.73;100.00
27643;BME280;15053;48.618;10.024;2023-10-19T02:11:50;92725.94;;;9.74;100.00
27643;BME280;15053;48.618;10.024;2023-10-19T02:14:19;92745.09;;;9.70;100.00
27643;BME280;15053;48.618;10.024;2023-10-19T02:16:49;92749.41;;;9.66;100.00
27643;BME280;15053;48.618;10.024;2023-10-19T02:19:21;92742.25;;;9.63;100.00
27643;BME280;15053;48.618;10.024;2023-10-19T02:21:49;92722.28;;;9.55;100.00
27643;BME280;15053;48.618;10.024;2023-10-19T02:24:16;92725.31;;;9.57;100.00
27643;BME280;15053;48.618;10.024;2023-10-19T02:26:44;92738.63;;;9.55;100.00
27643;BME280;15053;48.618;10.024;2023-10-19T02:29:11;92736.34;;;9.54;100.00
27643;BME280;15053;48.618;10.024;2023-10-19T02:31:42;92727.34;;;9.51;100.00
27643;BME280;15053;48.618;10.024;2023-10-19T02:34:10;92734.69;;;9.49;100.00
27643;BME280;15053;48.618;10.024;2023-10-19T02:36:38;92727.25;;;9.47;100.00
27643;BME280;15053;48.618;10.024;2023-10-19T02:39:08;92721.56;;;9.45;100.00
27643;BME280;15053;48.618;10.024;2023-10-19T02:41:39;92710.88;;;9.47;100.00
27643;BME280;15053;48.618;10.024;2023-10-19T02:44:09;92704.91;;;9.46;100.00
27643;BME280;15053;48.618;10.024;2023-10-19T02:46:37;92697.75;;;9.43;100.00
27643;BME280;15053;48.618;10.024;2023-10-19T02:49:09;92711.66;;;9.47;100.00
27643;BME280;15053;48.618;10.024;2023-10-19T02:51:42;92707.19;;;9.48;100.00
27643;BME280;15053;48.618;10.024;2023-10-19T02:54:13;92703.53;;;9.49;100.00
27643;BME280;15053;48.618;10.024;2023-10-19T02:56:50;92723.53;;;9.48;100.00
27643;BME280;15053;48.618;10.024;2023-10-19T02:59:19;92712.72;;;9.46;100.00
27643;BME280;15053;48.618;10.024;2023-10-19T03:01:51;92685.88;;;9.34;100.00
27643;BME280;15053;48.618;10.024;2023-10-19T03:04:18;92693.75;;;9.46;100.00
27643;BME280;15053;48.618;10.024;2023-10-19T03:06:45;92688.69;;;9.49;100.00
27643;BME280;15053;48.618;10.024;2023-10-19T03:09:12;92686.53;;;9.52;100.00
27643;BME280;15053;48.618;10.024;2023-10-19T03:11:43;92674.75;;;9.54;100.00
27643;BME280;15053;48.618;10.024;2023-10-19T03:14:11;92683.31;;;9.55;100.00
27643;BME280;15053;48.618;10.024;2023-10-19T03:16:38;92673.34;;;9.57;100.00
27643;BME280;15053;48.618;10.024;2023-10-19T03:19:09;92669.25;;;9.56;100.00
27643;BME280;15053;48.618;10.024;2023-10-19T03:21:35;92672.56;;;9.56;100.00
27643;BME280;15053;48.618;10.024;2023-10-19T03:24:16;92665.44;;;9.53;100.00
27643;BME280;15053;48.618;10.024;2023-10-19T03:27:05;92672.28;;;9.58;100.00
27643;BME280;15053;48.618;10.024;2023-10-19T03:29:49;92665.97;;;9.59;100.00
27643;BME280;15053;48.618;10.024;2023-10-19T03:32:23;92671.63;;;9.61;100.00
27643;BME280;15053;48.618;10.024;2023-10-19T03:34:55;92671.75;;;9.64;100.00
27643;BME280;15053;48.618;10.024;2023-10-19T03:37:23;92668.50;;;9.67;100.00
27643;BME280;15053;48.618;10.024;2023-10-19T03:39:52;92659.50;;;9.65;100.00
27643;BME280;15053;48.618;10.024;2023-10-19T03:42:22;92668.97;;;9.69;100.00
27643;BME280;15053;48.618;10.024;2023-10-19T03:44:52;92661.47;;;9.68;100.00
27643;BME280;15053;48.618;10.024;2023-10-19T03:47:23;92664.06;;;9.68;100.00
27643;BME280;15053;48.618;10.024;2023-10-19T03:50:02;92664.06;;;9.68;100.00
27643;BME280;15053;48.618;10.024;2023-10-19T03:52:40;92659.22;;;9.66;100.00
27643;BME280;15053;48.618;10.024;2023-10-19T03:55:08;92643.88;;;9.53;100.00
27643;BME280;15053;48.618;10.024;2023-10-19T03:57:38;92649.44;;;9.63;100.00
27643;BME280;15053;48.618;10.024;2023-10-19T04:00:08;92647.16;;;9.62;100.00
27643;BME280;15053;48.618;10.024;2023-10-19T04:02:42;92656.47;;;9.63;100.00
27643;BME280;15053;48.618;10.024;2023-10-19T04:05:09;92646.72;;;9.60;100.00
27643;BME280;15053;48.618;10.024;2023-10-19T04:07:41;92639.56;;;9.57;100.00
27643;BME280;15053;48.618;10.024;2023-10-19T04:10:10;92634.34;;;9.57;100.00
27643;BME280;15053;48.618;10.024;2023-10-19T04:12:56;92636.53;;;9.55;100.00
27643;BME280;15053;48.618;10.024;2023-10-19T04:15:27;92633.50;;;9.53;100.00
27643;BME280;15053;48.618;10.024;2023-10-19T04:17:53;92625.91;;;9.47;100.00
27643;BME280;15053;48.618;10.024;2023-10-19T04:20:21;92621.34;;;9.44;100.00
27643;BME280;15053;48.618;10.024;2023-10-19T04:22:49;92619.38;;;9.41;100.00
27643;BME280;15053;48.618;10.024;2023-10-19T04:25:18;92628.50;;;9.47;100.00
27643;BME280;15053;48.618;10.024;2023-10-19T04:27:46;92621.78;;;9.46;100.00
27643;BME280;15053;48.618;10.024;2023-10-19T04:30:14;92621.34;;;9.44;100.00
27643;BME280;15053;48.618;10.024;2023-10-19T04:32:54;92617.22;;;9.43;100.00
27643;BME280;15053;48.618;10.024;2023-10-19T04:35:24;92614.19;;;9.41;100.00
27643;BME280;15053;48.618;10.024;2023-10-19T04:37:56;92607.59;;;9.44;100.00
27643;BME280;15053;48.618;10.024;2023-10-19T04:40:23;92589.25;;;9.28;100.00
27643;BME280;15053;48.618;10.024;2023-10-19T04:42:51;92617.34;;;9.47;100.00
27643;BME280;15053;48.618;10.024;2023-10-19T04:45:18;92612.91;;;9.47;100.00
27643;BME280;15053;48.618;10.024;2023-10-19T04:47:45;92605.41;;;9.46;100.00
27643;BME280;15053;48.618;10.024;2023-10-19T04:50:13;92600.97;;;9.46;100.00
27643;BME280;15053;48.618;10.024;2023-10-19T04:52:39;92596.84;;;9.45;100.00
27643;BME280;15053;48.618;10.024;2023-10-19T04:55:06;92593.63;;;9.48;100.00
27643;BME280;15053;48.618;10.024;2023-10-19T04:57:33;92580.84;;;9.43;100.00
27643;BME280;15053;48.618;10.024;2023-10-19T05:00:00;92581.94;;;9.55;100.00
27643;BME280;15053;48.618;10.024;2023-10-19T05:02:26;92582.72;;;9.55;100.00
27643;BME280;15053;48.618;10.024;2023-10-19T05:04:53;92587.16;;;9.55;100.00
27643;BME280;15053;48.618;10.024;2023-10-19T05:07:20;92591.91;;;9.53;100.00
27643;BME280;15053;48.618;10.024;2023-10-19T05:09:46;92595.16;;;9.49;100.00
27643;BME280;15053;48.618;10.024;2023-10-19T05:12:14;92600.22;;;9.46;100.00
27643;BME280;15053;48.618;10.024;2023-10-19T05:14:42;92591.09;;;9.40;100.00
27643;BME280;15053;48.618;10.024;2023-10-19T05:17:09;92586.06;;;9.23;100.00
27643;BME280;15053;48.618;10.024;2023-10-19T05:19:37;92580.50;;;9.12;100.00
27643;BME280;15053;48.618;10.024;2023-10-19T05:22:08;92590.78;;;9.09;100.00
27643;BME280;15053;48.618;10.024;2023-10-19T05:24:35;92587.59;;;9.03;100.00
27643;BME280;15053;48.618;10.024;2023-10-19T05:27:02;92590.06;;;9.00;100.00
27643;BME280;15053;48.618;10.024;2023-10-19T05:29:31;92592.53;;;8.96;100.00
27643;BME280;15053;48.618;10.024;2023-10-19T05:31:59;92583.09;;;8.92;100.00
27643;BME280;15053;48.618;10.024;2023-10-19T05:34:27;92573.03;;;8.90;100.00
27643;BME280;15053;48.618;10.024;2023-10-19T05:36:56;92575.06;;;8.84;100.00
27643;BME280;15053;48.618;10.024;2023-10-19T05:39:25;92588.75;;;8.94;100.00
27643;BME280;15053;48.618;10.024;2023-10-19T05:41:57;92582.16;;;8.96;100.00
27643;BME280;15053;48.618;10.024;2023-10-19T05:44:30;92580.88;;;9.02;100.00
27643;BME280;15053;48.618;10.024;2023-10-19T05:47:15;92570.19;;;9.04;100.00
27643;BME280;15053;48.618;10.024;2023-10-19T05:49:41;92575.94;;;9.09;100.00
27643;BME280;15053;48.618;10.024;2023-10-19T05:52:08;92584.41;;;9.18;100.00
27643;BME280;15053;48.618;10.024;2023-10-19T05:54:35;92581.63;;;9.23;100.00
27643;BME280;15053;48.618;10.024;2023-10-19T05:57:03;92604.38;;;9.26;100.00
27643;BME280;15053;48.618;10.024;2023-10-19T05:59:33;92613.06;;;9.30;100.00
27643;BME280;15053;48.618;10.024;2023-10-19T06:02:00;92592.00;;;9.23;100.00
27643;BME280;15053;48.618;10.024;2023-10-19T06:04:27;92607.72;;;9.27;100.00
27643;BME280;15053;48.618;10.024;2023-10-19T06:06:53;92610.88;;;9.32;100.00
27643;BME280;15053;48.618;10.024;2023-10-19T06:09:20;92596.13;;;9.24;100.00
27643;BME280;15053;48.618;10.024;2023-10-19T06:11:47;92597.56;;;9.34;100.00
27643;BME280;15053;48.618;10.024;2023-10-19T06:14:13;92599.34;;;9.42;100.00
27643;BME280;15053;48.618;10.024;2023-10-19T06:16:40;92596.84;;;9.45;100.00
27643;BME280;15053;48.618;10.024;2023-10-19T06:19:07;92601.75;;;9.47;100.00
27643;BME280;15053;48.618;10.024;2023-10-19T06:21:33;92604.44;;;9.50;100.00
27643;BME280;15053;48.618;10.024;2023-10-19T06:24:00;92593.41;;;9.54;100.00
27643;BME280;15053;48.618;10.024;2023-10-19T06:26:29;92589.75;;;9.55;100.00
27643;BME280;15053;48.618;10.024;2023-10-19T06:28:55;92588.47;;;9.61;100.00
27643;BME280;15053;48.618;10.024;2023-10-19T06:31:30;92591.94;;;9.65;100.00
27643;BME280;15053;48.618;10.024;2023-10-19T06:33:57;92592.50;;;9.70;100.00
27643;BME280;15053;48.618;10.024;2023-10-19T06:36:24;92595.22;;;9.74;100.00
27643;BME280;15053;48.618;10.024;2023-10-19T06:38:51;92594.38;;;9.82;100.00
27643;BME280;15053;48.618;10.024;2023-10-19T06:41:17;92585.91;;;9.85;100.00
27643;BME280;15053;48.618;10.024;2023-10-19T06:43:44;92577.91;;;9.90;100.00
27643;BME280;15053;48.618;10.024;2023-10-19T06:46:11;92584.00;;;9.94;100.00
27643;BME280;15053;48.618;10.024;2023-10-19T06:48:39;92576.94;;;9.94;100.00
27643;BME280;15053;48.618;10.024;2023-10-19T06:51:06;92569.34;;;9.89;100.00
27643;BME280;15053;48.618;10.024;2023-10-19T06:53:33;92583.91;;;10.15;100.00
27643;BME280;15053;48.618;10.024;2023-10-19T06:56:00;92583.81;;;10.23;100.00
27643;BME280;15053;48.618;10.024;2023-10-19T06:58:27;92582.53;;;10.29;100.00
27643;BME280;15053;48.618;10.024;2023-10-19T07:00:54;92557.38;;;10.21;100.00
27643;BME280;15053;48.618;10.024;2023-10-19T07:03:26;92578.63;;;10.35;100.00
27643;BME280;15053;48.618;10.024;2023-10-19T07:05:54;92580.03;;;10.45;100.00
27643;BME280;15053;48.618;10.024;2023-10-19T07:08:22;92570.69;;;10.44;100.00
27643;BME280;15053;48.618;10.024;2023-10-19T07:10:48;92591.84;;;10.54;100.00
27643;BME280;15053;48.618;10.024;2023-10-19T07:13:18;92586.00;;;10.57;100.00
27643;BME280;15053;48.618;10.024;2023-10-19T07:15:45;92583.59;;;10.64;100.00
27643;BME280;15053;48.618;10.024;2023-10-19T07:18:12;92590.09;;;10.71;100.00
27643;BME280;15053;48.618;10.024;2023-10-19T07:20:40;92586.91;;;10.77;100.00
27643;BME280;15053;48.618;10.024;2023-10-19T07:23:09;92585.31;;;10.85;100.00
27643;BME280;15053;48.618;10.024;2023-10-19T07:25:53;92583.66;;;10.92;100.00
27643;BME280;15053;48.618;10.024;2023-10-19T07:28:26;92577.25;;;10.90;100.00
27643;BME280;15053;48.618;10.024;2023-10-19T07:30:53;92584.28;;;11.01;100.00
27643;BME280;15053;48.618;10.024;2023-10-19T07:33:19;92591.88;;;11.06;100.00
27643;BME280;15053;48.618;10.024;2023-10-19T07:35:48;92591.94;;;11.10;100.00
27643;BME280;15053;48.618;10.024;2023-10-19T07:38:19;92592.06;;;11.13;100.00
27643;BME280;15053;48.618;10.024;2023-10-19T07:40:48;92588.44;;;11.18;100.00
27643;BME280;15053;48.618;10.024;2023-10-19T07:43:15;92588.25;;;11.23;100.00
27643;BME280;15053;48.618;10.024;2023-10-19T07:45:41;92591.38;;;11.29;100.00
27643;BME280;15053;48.618;10.024;2023-10-19T07:48:09;92590.38;;;11.33;100.00
27643;BME280;15053;48.618;10.024;2023-10-19T07:50:39;92570.06;;;11.26;100.00
27643;BME280;15053;48.618;10.024;2023-10-19T07:53:10;92582.41;;;11.42;100.00
27643;BME280;15053;48.618;10.024;2023-10-19T07:55:36;92580.31;;;11.47;100.00
27643;BME280;15053;48.618;10.024;2023-10-19T07:58:05;92585.03;;;11.57;100.00
27643;BME280;15053;48.618;10.024;2023-10-19T08:00:34;92593.47;;;11.66;100.00
27643;BME280;15053;48.618;10.024;2023-10-19T08:03:02;92581.75;;;11.72;100.00
27643;BME280;15053;48.618;10.024;2023-10-19T08:05:30;92576.53;;;11.72;100.00
27643;BME280;15053;48.618;10.024;2023-10-19T08:07:56;92571.91;;;11.81;100.00
27643;BME280;15053;48.618;10.024;2023-10-19T08:10:27;92541.28;;;11.78;100.00
27643;BME280;15053;48.618;10.024;2023-10-19T08:12:54;92566.63;;;11.94;100.00
27643;BME280;15053;48.618;10.024;2023-10-19T08:15:21;92554.75;;;11.96;100.00
27643;BME280;15053;48.618;10.024;2023-10-19T08:17:49;92559.81;;;12.05;100.00
27643;BME280;15053;48.618;10.024;2023-10-19T08:20:17;92555.84;;;12.11;100.00
27643;BME280;15053;48.618;10.024;2023-10-19T08:22:59;92554.94;;;12.19;100.00
27643;BME280;15053;48.618;10.024;2023-10-19T08:25:28;92541.94;;;12.22;100.00
27643;BME280;15053;48.618;10.024;2023-10-19T08:28:14;92563.75;;;12.30;100.00
27643;BME280;15053;48.618;10.024;2023-10-19T08:30:42;92553.31;;;12.30;100.00
27643;BME280;15053;48.618;10.024;2023-10-19T08:33:11;92551.03;;;12.28;100.00
27643;BME280;15053;48.618;10.024;2023-10-19T08:35:40;92552.16;;;12.27;100.00
27643;BME280;15053;48.618;10.024;2023-10-19T08:38:07;92561.47;;;12.28;100.00
27643;BME280;15053;48.618;10.024;2023-10-19T08:40:38;92552.97;;;12.31;100.00
27643;BME280;15053;48.618;10.024;2023-10-19T08:43:05;92551.13;;;12.32;100.00
27643;BME280;15053;48.618;10.024;2023-10-19T08:45:33;92557.94;;;12.36;100.00
27643;BME280;15053;48.618;10.024;2023-10-19T08:48:01;92548.25;;;12.37;100.00
27643;BME280;15053;48.618;10.024;2023-10-19T08:50:29;92540.31;;;12.33;100.00
27643;BME280;15053;48.618;10.024;2023-10-19T08:52:59;92542.53;;;12.31;100.00
27643;BME280;15053;48.618;10.024;2023-10-19T08:55:28;92551.13;;;12.32;100.00
27643;BME280;15053;48.618;10.024;2023-10-19T08:58:14;92550.03;;;12.33;100.00
27643;BME280;15053;48.618;10.024;2023-10-19T09:00:47;92551.78;;;12.29;100.00
27643;BME280;15053;48.618;10.024;2023-10-19T09:03:16;92551.66;;;12.22;100.00
27643;BME280;15053;48.618;10.024;2023-10-19T09:05:46;92554.34;;;12.10;100.00
27643;BME280;15053;48.618;10.024;2023-10-19T09:08:15;92566.88;;;12.04;100.00
27643;BME280;15053;48.618;10.024;2023-10-19T09:10:43;92551.47;;;11.99;100.00
27643;BME280;15053;48.618;10.024;2023-10-19T09:13:12;92550.63;;;11.95;100.00
27643;BME280;15053;48.618;10.024;2023-10-19T09:15:41;92552.72;;;11.90;100.00
27643;BME280;15053;48.618;10.024;2023-10-19T09:20:46;92549.78;;;11.75;100.00
27643;BME280;15053;48.618;10.024;2023-10-19T09:23:25;92541.66;;;11.65;100.00
27643;BME280;15053;48.618;10.024;2023-10-19T09:25:56;92546.13;;;11.64;100.00
27643;BME280;15053;48.618;10.024;2023-10-19T09:28:24;92543.53;;;11.64;100.00
27643;BME280;15053;48.618;10.024;2023-10-19T09:30:52;92551.34;;;11.64;100.00
27643;BME280;15053;48.618;10.024;2023-10-19T09:33:19;92552.97;;;11.69;100.00
27643;BME280;15053;48.618;10.024;2023-10-19T09:35:49;92538.09;;;11.69;100.00
27643;BME280;15053;48.618;10.024;2023-10-19T09:38:17;92540.69;;;11.69;100.00
27643;BME280;15053;48.618;10.024;2023-10-19T09:40:54;92543.59;;;11.68;100.00
27643;BME280;15053;48.618;10.024;2023-10-19T09:46:00;92537.75;;;11.71;100.00
27643;BME280;15053;48.618;10.024;2023-10-19T09:48:27;92542.69;;;11.76;100.00
27643;BME280;15053;48.618;10.024;2023-10-19T09:50:56;92533.28;;;11.71;100.00
27643;BME280;15053;48.618;10.024;2023-10-19T09:53:28;92531.94;;;11.77;100.00
27643;BME280;15053;48.618;10.024;2023-10-19T09:55:59;92535.06;;;11.83;100.00
27643;BME280;15053;48.618;10.024;2023-10-19T09:58:33;92541.47;;;11.86;100.00
27643;BME280;15053;48.618;10.024;2023-10-19T10:01:01;92539.16;;;11.84;100.00
27643;BME280;15053;48.618;10.024;2023-10-19T10:03:45;92537.00;;;11.86;100.00
27643;BME280;15053;48.618;10.024;2023-10-19T10:06:17;92535.81;;;11.83;100.00
27643;BME280;15053;48.618;10.024;2023-10-19T10:08:53;92526.41;;;11.95;100.00
27643;BME280;15053;48.618;10.024;2023-10-19T10:11:22;92528.31;;;11.98;100.00
27643;BME280;15053;48.618;10.024;2023-10-19T10:13:49;92522.19;;;12.06;100.00
27643;BME280;15053;48.618;10.024;2023-10-19T10:16:22;92526.72;;;12.09;100.00
27643;BME280;15053;48.618;10.024;2023-10-19T10:18:50;92517.72;;;12.06;100.00
27643;BME280;15053;48.618;10.024;2023-10-19T10:21:21;92518.88;;;12.09;100.00
27643;BME280;15053;48.618;10.024;2023-10-19T10:26:22;92529.00;;;12.10;100.00
27643;BME280;15053;48.618;10.024;2023-10-19T10:29:14;92521.50;;;12.09;100.00
27643;BME280;15053;48.618;10.024;2023-10-19T10:31:47;92523.69;;;12.07;100.00
27643;BME280;15053;48.618;10.024;2023-10-19T10:37:01;92525.22;;;12.08;100.00
27643;BME280;15053;48.618;10.024;2023-10-19T10:39:31;92519.25;;;12.07;100.00
27643;BME280;15053;48.618;10.024;2023-10-19T10:41:59;92514.09;;;12.11;100.00
27643;BME280;15053;48.618;10.024;2023-10-19T10:44:42;92515.78;;;12.19;100.00
27643;BME280;15053;48.618;10.024;2023-10-19T10:47:17;92518.28;;;12.31;100.00
27643;BME280;15053;48.618;10.024;2023-10-19T10:49:58;92507.47;;;12.48;100.00
27643;BME280;15053;48.618;10.024;2023-10-19T10:52:36;92500.34;;;12.64;100.00
27643;BME280;15053;48.618;10.024;2023-10-19T10:55:14;92497.25;;;12.78;100.00
27643;BME280;15053;48.618;10.024;2023-10-19T10:57:42;92493.78;;;12.89;100.00
27643;BME280;15053;48.618;10.024;2023-10-19T11:00:12;92492.97;;;13.05;100.00
27643;BME280;15053;48.618;10.024;2023-10-19T11:02:47;92482.09;;;13.22;100.00
27643;BME280;15053;48.618;10.024;2023-10-19T11:05:15;92481.66;;;13.39;100.00
27643;BME280;15053;48.618;10.024;2023-10-19T11:10:29;92474.47;;;13.55;100.00
27643;BME280;15053;48.618;10.024;2023-10-19T11:13:01;92464.81;;;13.59;100.00
27643;BME280;15053;48.618;10.024;2023-10-19T11:15:28;92458.47;;;13.60;100.00
27643;BME280;15053;48.618;10.024;2023-10-19T11:17:54;92460.41;;;13.63;100.00
27643;BME280;15053;48.618;10.024;2023-10-19T11:20:25;92463.78;;;13.64;100.00
27643;BME280;15053;48.618;10.024;2023-10-19T11:22:54;92464.88;;;13.63;100.00
27643;BME280;15053;48.618;10.024;2023-10-19T11:25:27;92453.66;;;13.62;100.00
27643;BME280;15053;48.618;10.024;2023-10-19T11:27:59;92461.91;;;13.64;100.00
27643;BME280;15053;48.618;10.024;2023-10-19T11:30:29;92458.91;;;13.62;100.00
27643;BME280;15053;48.618;10.024;2023-10-19T11:32:55;92464.13;;;13.62;100.00
27643;BME280;15053;48.618;10.024;2023-10-19T11:35:30;92461.84;;;13.60;100.00
27643;BME280;15053;48.618;10.024;2023-10-19T11:37:59;92473.44;;;13.59;100.00
27643;BME280;15053;48.618;10.024;2023-10-19T11:40:26;92472.31;;;13.60;100.00
27643;BME280;15053;48.618;10.024;2023-10-19T11:42:55;92474.84;;;13.57;100.00
27643;BME280;15053;48.618;10.024;2023-10-19T11:45:27;92468.81;;;13.53;100.00
27643;BME280;15053;48.618;10.024;2023-10-19T11:47:55;92444.06;;;13.47;100.00
27643;BME280;15053;48.618;10.024;2023-10-19T11:50:23;92453.06;;;13.49;100.00
27643;BME280;15053;48.618;10.024;2023-10-19T11:52:50;92444.41;;;13.45;100.00
27643;BME280;15053;48.618;10.024;2023-10-19T11:55:19;92446.28;;;13.45;100.00
27643;BME280;15053;48.618;10.024;2023-10-19T11:57:47;92451.09;;;13.43;100.00
27643;BME280;15053;48.618;10.024;2023-10-19T12:00:14;92463.13;;;13.47;100.00
27643;BME280;15053;48.618;10.024;2023-10-19T12:02:46;92460.59;;;13.51;100.00
27643;BME280;15053;48.618;10.024;2023-10-19T12:05:13;92441.44;;;13.47;100.00
27643;BME280;15053;48.618;10.024;2023-10-19T12:07:40;92443.47;;;13.57;100.00
27643;BME280;15053;48.618;10.024;2023-10-19T12:10:09;92433.00;;;13.57;100.00
27643;BME280;15053;48.618;10.024;2023-10-19T12:12:36;92442.50;;;13.65;100.00
27643;BME280;15053;48.618;10.024;2023-10-19T12:15:23;92418.53;;;13.63;100.00
27643;BME280;15053;48.618;10.024;2023-10-19T12:17:49;92441.91;;;13.75;100.00
27643;BME280;15053;48.618;10.024;2023-10-19T12:20:17;92452.13;;;13.84;100.00
27643;BME280;15053;48.618;10.024;2023-10-19T12:22:48;92453.41;;;13.93;100.00
27643;BME280;15053;48.618;10.024;2023-10-19T12:25:18;92440.44;;;14.00;100.00
27643;BME280;15053;48.618;10.024;2023-10-19T12:27:45;92439.00;;;14.06;100.00
27643;BME280;15053;48.618;10.024;2023-10-19T12:30:11;92429.75;;;14.12;100.00
27643;BME280;15053;48.618;10.024;2023-10-19T12:32:47;92416.00;;;14.19;100.00
27643;BME280;15053;48.618;10.024;2023-10-19T12:35:15;92428.44;;;14.26;100.00
27643;BME280;15053;48.618;10.024;2023-10-19T12:37:45;92424.00;;;14.30;100.00
27643;BME280;15053;48.618;10.024;2023-10-19T12:40:13;92421.09;;;14.35;100.00
27643;BME280;15053;48.618;10.024;2023-10-19T12:42:55;92426.72;;;14.37;100.00
27643;BME280;15053;48.618;10.024;2023-10-19T12:45:22;92434.31;;;14.42;100.00
27643;BME280;15053;48.618;10.024;2023-10-19T12:47:48;92436.94;;;14.42;100.00
27643;BME280;15053;48.618;10.024;2023-10-19T12:50:15;92435.78;;;14.39;100.00
27643;BME280;15053;48.618;10.024;2023-10-19T12:52:42;92443.22;;;14.37;100.00
27643;BME280;15053;48.618;10.024;2023-10-19T12:55:08;92443.19;;;14.34;100.00
27643;BME280;15053;48.618;10.024;2023-10-19T12:57:35;92428.47;;;14.29;100.00
27643;BME280;15053;48.618;10.024;2023-10-19T13:00:02;92440.47;;;14.30;100.00
27643;BME280;15053;48.618;10.024;2023-10-19T13:02:48;92439.72;;;14.30;100.00
27643;BME280;15053;48.618;10.024;2023-10-19T13:05:16;92442.69;;;14.28;100.00
27643;BME280;15053;48.618;10.024;2023-10-19T13:07:44;92439.66;;;14.26;100.00
27643;BME280;15053;48.618;10.024;2023-10-19T13:10:11;92438.91;;;14.26;100.00
27643;BME280;15053;48.618;10.024;2023-10-19T13:12:37;92426.16;;;14.24;100.00
27643;BME280;15053;48.618;10.024;2023-10-19T13:15:04;92422.78;;;14.24;100.00
27643;BME280;15053;48.618;10.024;2023-10-19T13:17:39;92413.72;;;14.17;100.00
27643;BME280;15053;48.618;10.024;2023-10-19T13:20:06;92423.03;;;14.11;100.00
27643;BME280;15053;48.618;10.024;2023-10-19T13:22:42;92412.03;;;14.02;100.00